Georg Jacob — A8XG5 — position and weather

sailwx.info

Track history (hours):
 
Tides and Currents Weather Stations Pressure Air Temp Water Temp Dewpoint Dewpoint Depression Visibility Wind Speed Wind Dir Waves Ship Positions

Georg Jacob

Last reported at 2014-Oct-16 21:06 UTC. Time now 2014-Oct-20 21:20 UTC.
Position N 50°05' W 002°23'.

Length 229 m; draft 13.5 m.

Type: Tanker. MMSI: 636092136.

Date/timePositionNaut miles runAvg speedWind from/ knotsBaromVisibWave heightAir tempDewpointWater temp
2014-Oct-16 21:06N 50°05' W 002°23'99 9.2
2014-Oct-16 10:20N 50°31' E 000°06'8 9.8
2014-Oct-16 09:33N 50°33' E 000°17'10 9.9
2014-Oct-16 08:34N 50°36' E 000°32'10 9.5
2014-Oct-16 07:34N 50°41' E 000°45'9 9.2
2014-Oct-16 06:33N 50°46' E 000°57'11 8.5
2014-Oct-16 05:17N 50°53' E 001°10'7 8.3
2014-Oct-16 04:28N 50°58' E 001°17'7 8.1
2014-Oct-16 03:34N 51°03' E 001°26'9 8.8
2014-Oct-16 02:34N 51°09' E 001°37'10 9.7
2014-Oct-16 01:34N 51°16' E 001°47'1110.7
2014-Oct-16 00:34N 51°26' E 001°54'1110.6
2014-Oct-15 23:34N 51°34' E 002°05'1010.1
2014-Oct-15 22:33N 51°41' E 002°16'10 9.7
2014-Oct-15 21:32N 51°49' E 002°27'63 9.0
2014-Oct-15 14:31N 52°30' E 003°45'1010.3
2014-Oct-15 13:34N 52°31' E 004°02'1010.1
2014-Oct-15 12:33N 52°30' E 004°18'9 8.8
2014-Oct-15 11:34N 52°28' E 004°32'3 2.8
2014-Oct-15 10:34N 52°28' E 004°37'0 0.0
2014-Oct-15 09:34N 52°28' E 004°37'2 2.3
2014-Oct-15 08:33N 52°27' E 004°40'5 4.9
2014-Oct-15 07:33N 52°24' E 004°46'0 0.1
2014-Oct-15 06:33N 52°24' E 004°46'0 0.0
2014-Oct-15 05:33N 52°24' E 004°46'0 0.0
2014-Oct-15 04:33N 52°24' E 004°46'0 0.0
2014-Oct-15 03:30N 52°24' E 004°46'0 0.0
2014-Oct-15 02:33N 52°24' E 004°46'0 0.0
2014-Oct-15 01:33N 52°24' E 004°46'0 0.0
2014-Oct-15 00:33N 52°24' E 004°46'0 0.0
2014-Oct-14 23:33N 52°24' E 004°46'0 0.0
2014-Oct-14 22:33N 52°24' E 004°46'0 0.0
2014-Oct-14 21:33N 52°24' E 004°46'0 0.0
2014-Oct-14 20:33N 52°24' E 004°46'0 0.0
2014-Oct-14 19:33N 52°24' E 004°46'0 0.0
2014-Oct-14 18:33N 52°24' E 004°46'0 0.0
2014-Oct-14 17:33N 52°24' E 004°46'0 0.0
2014-Oct-14 16:33N 52°24' E 004°46'0 0.0
2014-Oct-14 15:33N 52°24' E 004°46'0 0.0
2014-Oct-14 14:33N 52°24' E 004°46'0 0.0
2014-Oct-14 13:33N 52°24' E 004°46'0 0.0
2014-Oct-14 12:24N 52°24' E 004°46'0 0.0
2014-Oct-14 11:33N 52°24' E 004°46'0 0.0
2014-Oct-14 10:33N 52°24' E 004°46'0 0.0
2014-Oct-14 09:33N 52°24' E 004°46'0 0.0
2014-Oct-14 08:33N 52°24' E 004°46'0 0.0
2014-Oct-14 07:33N 52°24' E 004°46'0 0.0
2014-Oct-14 06:33N 52°24' E 004°46'0 0.0
2014-Oct-14 05:33N 52°24' E 004°46'0 0.0
2014-Oct-14 04:30N 52°24' E 004°46'0 0.0
2014-Oct-14 03:33N 52°24' E 004°46'0 0.0
2014-Oct-14 02:33N 52°24' E 004°46'0 0.0
2014-Oct-14 01:33N 52°24' E 004°46'0 0.0
2014-Oct-14 00:33N 52°24' E 004°46'0 0.0
2014-Oct-13 23:33N 52°24' E 004°46'0 0.0
2014-Oct-13 22:33N 52°24' E 004°46'0 0.0
2014-Oct-13 21:30N 52°24' E 004°46'0 0.0
2014-Oct-13 20:33N 52°24' E 004°46'0 0.0
2014-Oct-13 19:33N 52°24' E 004°46'0 0.0
2014-Oct-13 18:30N 52°24' E 004°46'0 0.0
2014-Oct-13 17:33N 52°24' E 004°46'0 0.0
2014-Oct-13 16:30N 52°24' E 004°46'0 0.0
2014-Oct-13 15:33N 52°24' E 004°46'0 0.0
2014-Oct-13 14:30N 52°24' E 004°46'0 0.0
2014-Oct-13 13:33N 52°24' E 004°46'0 0.0
2014-Oct-13 12:33N 52°24' E 004°46'0 0.0
2014-Oct-13 11:33N 52°24' E 004°46'0 0.0
2014-Oct-13 10:33N 52°24' E 004°46'0 0.0
2014-Oct-13 09:33N 52°24' E 004°46'0 0.0
2014-Oct-13 08:33N 52°24' E 004°46'0 0.0
2014-Oct-13 07:33N 52°24' E 004°46'0 0.0
2014-Oct-13 06:33N 52°24' E 004°46'0 0.0
2014-Oct-13 05:33N 52°24' E 004°46'0 0.0
2014-Oct-13 04:33N 52°24' E 004°46'0 0.0
2014-Oct-13 03:33N 52°24' E 004°46'0 0.0
2014-Oct-13 02:33N 52°24' E 004°46'0 0.0
2014-Oct-13 01:33N 52°24' E 004°46'0 0.0
2014-Oct-13 00:33N 52°24' E 004°46'0 0.0
2014-Oct-12 23:33N 52°24' E 004°46'0 0.0
2014-Oct-12 22:33N 52°24' E 004°46'0 0.0
2014-Oct-12 21:33N 52°24' E 004°46'0 0.0
2014-Oct-12 20:33N 52°24' E 004°46'0 0.0
2014-Oct-12 19:33N 52°24' E 004°46'0 0.0
2014-Oct-12 18:33N 52°24' E 004°46'0 0.0
2014-Oct-12 17:33N 52°24' E 004°46'0 0.0
2014-Oct-12 16:33N 52°24' E 004°46'0 0.0
2014-Oct-12 15:33N 52°24' E 004°46'0 0.0
2014-Oct-12 14:33N 52°24' E 004°46'0 0.0
2014-Oct-12 13:33N 52°24' E 004°46'0 0.0
2014-Oct-12 12:33N 52°24' E 004°46'0 0.0
2014-Oct-12 11:33N 52°24' E 004°46'0 0.0
2014-Oct-12 10:33N 52°24' E 004°46'0 0.0
2014-Oct-12 09:33N 52°24' E 004°46'0 0.0
2014-Oct-12 08:33N 52°24' E 004°46'0 0.0
2014-Oct-12 07:33N 52°24' E 004°46'0 0.0
2014-Oct-12 06:33N 52°24' E 004°46'0 0.0
2014-Oct-12 05:30N 52°24' E 004°46'0 0.0
2014-Oct-12 04:33N 52°24' E 004°46'0 0.0
2014-Oct-12 03:33N 52°24' E 004°46'0 0.0
2014-Oct-12 02:30N 52°24' E 004°46'0 0.0
2014-Oct-12 01:33N 52°24' E 004°46'0 0.0
2014-Oct-12 00:33N 52°24' E 004°46'0 0.0
2014-Oct-11 23:27N 52°24' E 004°46'0 0.0
2014-Oct-11 22:33N 52°24' E 004°46'0 0.0
2014-Oct-11 21:33N 52°24' E 004°46'0 0.0
2014-Oct-11 20:33N 52°24' E 004°46'0 0.0
2014-Oct-11 19:33N 52°24' E 004°46'0 0.0
2014-Oct-11 18:33N 52°24' E 004°46'0 0.0
2014-Oct-11 17:33N 52°24' E 004°46'0 0.0
2014-Oct-11 16:33N 52°24' E 004°46'0 0.0
2014-Oct-11 15:33N 52°24' E 004°46'0 0.0
2014-Oct-11 14:33N 52°24' E 004°46'0 0.0
2014-Oct-11 13:33N 52°24' E 004°46'0 0.0
2014-Oct-11 12:33N 52°24' E 004°46'0 0.0
2014-Oct-11 11:33N 52°24' E 004°46'0 0.0
2014-Oct-11 10:31N 52°24' E 004°46'0 0.0
2014-Oct-11 09:31N 52°24' E 004°46'0 0.0
2014-Oct-11 08:25N 52°24' E 004°46'0 0.0
2014-Oct-11 07:31N 52°24' E 004°46'0 0.0
2014-Oct-11 06:31N 52°24' E 004°46'0 0.0
2014-Oct-11 05:31N 52°24' E 004°46'0 0.0
2014-Oct-11 04:31N 52°24' E 004°46'0 0.0
2014-Oct-11 03:31N 52°24' E 004°46'0 0.0
2014-Oct-11 02:31N 52°24' E 004°46'0 0.0
2014-Oct-11 01:29N 52°24' E 004°46'0 0.0
2014-Oct-11 00:28N 52°24' E 004°46'0 0.0
2014-Oct-10 23:31N 52°24' E 004°46'0 0.0
2014-Oct-10 22:32N 52°24' E 004°46'0 0.0
2014-Oct-10 21:31N 52°24' E 004°46'0 0.0
2014-Oct-10 20:31N 52°24' E 004°46'0 0.0
2014-Oct-10 19:31N 52°24' E 004°46'0 0.0
2014-Oct-10 18:31N 52°24' E 004°46'0 0.0
2014-Oct-10 17:31N 52°24' E 004°46'0 0.0
2014-Oct-10 16:31N 52°24' E 004°46'0 0.0
2014-Oct-10 15:31N 52°24' E 004°46'0 0.0
2014-Oct-10 14:25N 52°24' E 004°46'0 0.0
2014-Oct-10 13:33N 52°24' E 004°46'0 0.0
2014-Oct-10 12:33N 52°24' E 004°46'0 0.0
2014-Oct-10 11:33N 52°24' E 004°46'0 0.0
2014-Oct-10 10:33N 52°24' E 004°46'0 0.0
2014-Oct-10 09:33N 52°24' E 004°46'0 0.0
2014-Oct-10 08:33N 52°24' E 004°46'0 0.0
2014-Oct-10 07:33N 52°24' E 004°46'2 1.7
2014-Oct-10 06:34N 52°26' E 004°45'6 5.7
2014-Oct-10 05:33N 52°28' E 004°36'4 3.6
2014-Oct-10 04:33N 52°28' E 004°31'9 8.6
2014-Oct-10 03:34N 52°29' E 004°17'8 7.8
2014-Oct-10 02:33N 52°28' E 004°04'1 1.2
2014-Oct-10 01:32N 52°27' E 004°03'0 0.1
2014-Oct-10 00:32N 52°27' E 004°03'0 0.0
2014-Oct-09 23:32N 52°27' E 004°03'0 0.0
2014-Oct-09 22:32N 52°27' E 004°03'0 0.0
2014-Oct-09 21:32N 52°27' E 004°03'0 0.0
2014-Oct-09 20:32N 52°27' E 004°03'0 0.0
2014-Oct-09 19:32N 52°27' E 004°03'0 0.0
2014-Oct-09 18:32N 52°27' E 004°03'0 0.0
2014-Oct-09 17:32N 52°27' E 004°03'0 0.0
2014-Oct-09 16:32N 52°27' E 004°03'0 0.0
2014-Oct-09 15:32N 52°27' E 004°03'0 0.0
2014-Oct-09 14:32N 52°27' E 004°03'0 0.0
2014-Oct-09 13:32N 52°27' E 004°03'0 0.0
2014-Oct-09 12:32N 52°27' E 004°03'0 0.0
2014-Oct-09 11:32N 52°27' E 004°03'0 0.0
2014-Oct-09 10:32N 52°27' E 004°03'0 0.0
2014-Oct-09 09:32N 52°27' E 004°03'0 0.1
2014-Oct-09 08:32N 52°27' E 004°03'0 0.0
2014-Oct-09 07:32N 52°27' E 004°03'0 0.0
2014-Oct-09 06:32N 52°27' E 004°03'0 0.0
2014-Oct-09 05:32N 52°27' E 004°03'0 0.0
2014-Oct-09 04:32N 52°27' E 004°03'0 0.0
2014-Oct-09 03:32N 52°27' E 004°03'0 0.5
2014-Oct-09 02:33N 52°28' E 004°03'1010.4
2014-Oct-09 01:33N 52°26' E 003°46'1512.4
2014-Oct-09 00:18N 52°19' E 003°24'4511.6
2014-Oct-08 20:25N 51°45' E 002°35'910.6
2014-Oct-08 19:33N 51°38' E 002°25'1111.0
2014-Oct-08 18:34N 51°30' E 002°14'1211.8
2014-Oct-08 17:33N 51°19' E 002°08'1010.5
2014-Oct-08 16:34N 51°11' E 001°57'1211.6
2014-Oct-08 15:33N 51°04' E 001°42'1312.8
2014-Oct-08 14:34N 50°55' E 001°28'2412.1
2014-Oct-08 12:33N 50°34' E 001°08'1511.5
2014-Oct-08 11:13N 50°27' E 000°46'811.8
2014-Oct-08 10:34N 50°26' E 000°35'1212.5
2014-Oct-08 09:34N 50°22' E 000°16'  
Track history (hours):
 
Tides and Currents Weather Stations Pressure Air Temp Water Temp Dewpoint Dewpoint Depression Visibility Wind Speed Wind Dir Waves Ship Positions

Georg Jacob

Last reported at 2014-Oct-16 21:06 UTC. Time now 2014-Oct-20 21:20 UTC.
Position N 50°05' W 002°23'.

Length 229 m; draft 13.5 m.

Type: Tanker. MMSI: 636092136.

Date/timePositionNaut miles runAvg speedWind from/ knotsBaromVisibWave heightAir tempDewpointWater temp
2014-Oct-16 21:06N 50°05' W 002°23'99 9.2
2014-Oct-16 10:20N 50°31' E 000°06'8 9.8
2014-Oct-16 09:33N 50°33' E 000°17'10 9.9
2014-Oct-16 08:34N 50°36' E 000°32'10 9.5
2014-Oct-16 07:34N 50°41' E 000°45'9 9.2
2014-Oct-16 06:33N 50°46' E 000°57'11 8.5
2014-Oct-16 05:17N 50°53' E 001°10'7 8.3
2014-Oct-16 04:28N 50°58' E 001°17'7 8.1
2014-Oct-16 03:34N 51°03' E 001°26'9 8.8
2014-Oct-16 02:34N 51°09' E 001°37'10 9.7
2014-Oct-16 01:34N 51°16' E 001°47'1110.7
2014-Oct-16 00:34N 51°26' E 001°54'1110.6
2014-Oct-15 23:34N 51°34' E 002°05'1010.1
2014-Oct-15 22:33N 51°41' E 002°16'10 9.7
2014-Oct-15 21:32N 51°49' E 002°27'63 9.0
2014-Oct-15 14:31N 52°30' E 003°45'1010.3
2014-Oct-15 13:34N 52°31' E 004°02'1010.1
2014-Oct-15 12:33N 52°30' E 004°18'9 8.8
2014-Oct-15 11:34N 52°28' E 004°32'3 2.8
2014-Oct-15 10:34N 52°28' E 004°37'0 0.0
2014-Oct-15 09:34N 52°28' E 004°37'2 2.3
2014-Oct-15 08:33N 52°27' E 004°40'5 4.9
2014-Oct-15 07:33N 52°24' E 004°46'0 0.1
2014-Oct-15 06:33N 52°24' E 004°46'0 0.0
2014-Oct-15 05:33N 52°24' E 004°46'0 0.0
2014-Oct-15 04:33N 52°24' E 004°46'0 0.0
2014-Oct-15 03:30N 52°24' E 004°46'0 0.0
2014-Oct-15 02:33N 52°24' E 004°46'0 0.0
2014-Oct-15 01:33N 52°24' E 004°46'0 0.0
2014-Oct-15 00:33N 52°24' E 004°46'0 0.0
2014-Oct-14 23:33N 52°24' E 004°46'0 0.0
2014-Oct-14 22:33N 52°24' E 004°46'0 0.0
2014-Oct-14 21:33N 52°24' E 004°46'0 0.0
2014-Oct-14 20:33N 52°24' E 004°46'0 0.0
2014-Oct-14 19:33N 52°24' E 004°46'0 0.0
2014-Oct-14 18:33N 52°24' E 004°46'0 0.0
2014-Oct-14 17:33N 52°24' E 004°46'0 0.0
2014-Oct-14 16:33N 52°24' E 004°46'0 0.0
2014-Oct-14 15:33N 52°24' E 004°46'0 0.0
2014-Oct-14 14:33N 52°24' E 004°46'0 0.0
2014-Oct-14 13:33N 52°24' E 004°46'0 0.0
2014-Oct-14 12:24N 52°24' E 004°46'0 0.0
2014-Oct-14 11:33N 52°24' E 004°46'0 0.0
2014-Oct-14 10:33N 52°24' E 004°46'0 0.0
2014-Oct-14 09:33N 52°24' E 004°46'0 0.0
2014-Oct-14 08:33N 52°24' E 004°46'0 0.0
2014-Oct-14 07:33N 52°24' E 004°46'0 0.0
2014-Oct-14 06:33N 52°24' E 004°46'0 0.0
2014-Oct-14 05:33N 52°24' E 004°46'0 0.0
2014-Oct-14 04:30N 52°24' E 004°46'0 0.0
2014-Oct-14 03:33N 52°24' E 004°46'0 0.0
2014-Oct-14 02:33N 52°24' E 004°46'0 0.0
2014-Oct-14 01:33N 52°24' E 004°46'0 0.0
2014-Oct-14 00:33N 52°24' E 004°46'0 0.0
2014-Oct-13 23:33N 52°24' E 004°46'0 0.0
2014-Oct-13 22:33N 52°24' E 004°46'0 0.0
2014-Oct-13 21:30N 52°24' E 004°46'0 0.0
2014-Oct-13 20:33N 52°24' E 004°46'0 0.0
2014-Oct-13 19:33N 52°24' E 004°46'0 0.0
2014-Oct-13 18:30N 52°24' E 004°46'0 0.0
2014-Oct-13 17:33N 52°24' E 004°46'0 0.0
2014-Oct-13 16:30N 52°24' E 004°46'0 0.0
2014-Oct-13 15:33N 52°24' E 004°46'0 0.0
2014-Oct-13 14:30N 52°24' E 004°46'0 0.0
2014-Oct-13 13:33N 52°24' E 004°46'0 0.0
2014-Oct-13 12:33N 52°24' E 004°46'0 0.0
2014-Oct-13 11:33N 52°24' E 004°46'0 0.0
2014-Oct-13 10:33N 52°24' E 004°46'0 0.0
2014-Oct-13 09:33N 52°24' E 004°46'0 0.0
2014-Oct-13 08:33N 52°24' E 004°46'0 0.0
2014-Oct-13 07:33N 52°24' E 004°46'0 0.0
2014-Oct-13 06:33N 52°24' E 004°46'0 0.0
2014-Oct-13 05:33N 52°24' E 004°46'0 0.0
2014-Oct-13 04:33N 52°24' E 004°46'0 0.0
2014-Oct-13 03:33N 52°24' E 004°46'0 0.0
2014-Oct-13 02:33N 52°24' E 004°46'0 0.0
2014-Oct-13 01:33N 52°24' E 004°46'0 0.0
2014-Oct-13 00:33N 52°24' E 004°46'0 0.0
2014-Oct-12 23:33N 52°24' E 004°46'0 0.0
2014-Oct-12 22:33N 52°24' E 004°46'0 0.0
2014-Oct-12 21:33N 52°24' E 004°46'0 0.0
2014-Oct-12 20:33N 52°24' E 004°46'0 0.0
2014-Oct-12 19:33N 52°24' E 004°46'0 0.0
2014-Oct-12 18:33N 52°24' E 004°46'0 0.0
2014-Oct-12 17:33N 52°24' E 004°46'0 0.0
2014-Oct-12 16:33N 52°24' E 004°46'0 0.0
2014-Oct-12 15:33N 52°24' E 004°46'0 0.0
2014-Oct-12 14:33N 52°24' E 004°46'0 0.0
2014-Oct-12 13:33N 52°24' E 004°46'0 0.0
2014-Oct-12 12:33N 52°24' E 004°46'0 0.0
2014-Oct-12 11:33N 52°24' E 004°46'0 0.0
2014-Oct-12 10:33N 52°24' E 004°46'0 0.0
2014-Oct-12 09:33N 52°24' E 004°46'0 0.0
2014-Oct-12 08:33N 52°24' E 004°46'0 0.0
2014-Oct-12 07:33N 52°24' E 004°46'0 0.0
2014-Oct-12 06:33N 52°24' E 004°46'0 0.0
2014-Oct-12 05:30N 52°24' E 004°46'0 0.0
2014-Oct-12 04:33N 52°24' E 004°46'0 0.0
2014-Oct-12 03:33N 52°24' E 004°46'0 0.0
2014-Oct-12 02:30N 52°24' E 004°46'0 0.0
2014-Oct-12 01:33N 52°24' E 004°46'0 0.0
2014-Oct-12 00:33N 52°24' E 004°46'0 0.0
2014-Oct-11 23:27N 52°24' E 004°46'0 0.0
2014-Oct-11 22:33N 52°24' E 004°46'0 0.0
2014-Oct-11 21:33N 52°24' E 004°46'0 0.0
2014-Oct-11 20:33N 52°24' E 004°46'0 0.0
2014-Oct-11 19:33N 52°24' E 004°46'0 0.0
2014-Oct-11 18:33N 52°24' E 004°46'0 0.0
2014-Oct-11 17:33N 52°24' E 004°46'0 0.0
2014-Oct-11 16:33N 52°24' E 004°46'0 0.0
2014-Oct-11 15:33N 52°24' E 004°46'0 0.0
2014-Oct-11 14:33N 52°24' E 004°46'0 0.0
2014-Oct-11 13:33N 52°24' E 004°46'0 0.0
2014-Oct-11 12:33N 52°24' E 004°46'0 0.0
2014-Oct-11 11:33N 52°24' E 004°46'0 0.0
2014-Oct-11 10:31N 52°24' E 004°46'0 0.0
2014-Oct-11 09:31N 52°24' E 004°46'0 0.0
2014-Oct-11 08:25N 52°24' E 004°46'0 0.0
2014-Oct-11 07:31N 52°24' E 004°46'0 0.0
2014-Oct-11 06:31N 52°24' E 004°46'0 0.0
2014-Oct-11 05:31N 52°24' E 004°46'0 0.0
2014-Oct-11 04:31N 52°24' E 004°46'0 0.0
2014-Oct-11 03:31N 52°24' E 004°46'0 0.0
2014-Oct-11 02:31N 52°24' E 004°46'0 0.0
2014-Oct-11 01:29N 52°24' E 004°46'0 0.0
2014-Oct-11 00:28N 52°24' E 004°46'0 0.0
2014-Oct-10 23:31N 52°24' E 004°46'0 0.0
2014-Oct-10 22:32N 52°24' E 004°46'0 0.0
2014-Oct-10 21:31N 52°24' E 004°46'0 0.0
2014-Oct-10 20:31N 52°24' E 004°46'0 0.0
2014-Oct-10 19:31N 52°24' E 004°46'0 0.0
2014-Oct-10 18:31N 52°24' E 004°46'0 0.0
2014-Oct-10 17:31N 52°24' E 004°46'0 0.0
2014-Oct-10 16:31N 52°24' E 004°46'0 0.0
2014-Oct-10 15:31N 52°24' E 004°46'0 0.0
2014-Oct-10 14:25N 52°24' E 004°46'0 0.0
2014-Oct-10 13:33N 52°24' E 004°46'0 0.0
2014-Oct-10 12:33N 52°24' E 004°46'0 0.0
2014-Oct-10 11:33N 52°24' E 004°46'0 0.0
2014-Oct-10 10:33N 52°24' E 004°46'0 0.0
2014-Oct-10 09:33N 52°24' E 004°46'0 0.0
2014-Oct-10 08:33N 52°24' E 004°46'0 0.0
2014-Oct-10 07:33N 52°24' E 004°46'2 1.7
2014-Oct-10 06:34N 52°26' E 004°45'6 5.7
2014-Oct-10 05:33N 52°28' E 004°36'4 3.6
2014-Oct-10 04:33N 52°28' E 004°31'9 8.6
2014-Oct-10 03:34N 52°29' E 004°17'8 7.8
2014-Oct-10 02:33N 52°28' E 004°04'1 1.2
2014-Oct-10 01:32N 52°27' E 004°03'0 0.1
2014-Oct-10 00:32N 52°27' E 004°03'0 0.0
2014-Oct-09 23:32N 52°27' E 004°03'0 0.0
2014-Oct-09 22:32N 52°27' E 004°03'0 0.0
2014-Oct-09 21:32N 52°27' E 004°03'0 0.0
2014-Oct-09 20:32N 52°27' E 004°03'0 0.0
2014-Oct-09 19:32N 52°27' E 004°03'0 0.0
2014-Oct-09 18:32N 52°27' E 004°03'0 0.0
2014-Oct-09 17:32N 52°27' E 004°03'0 0.0
2014-Oct-09 16:32N 52°27' E 004°03'0 0.0
2014-Oct-09 15:32N 52°27' E 004°03'0 0.0
2014-Oct-09 14:32N 52°27' E 004°03'0 0.0
2014-Oct-09 13:32N 52°27' E 004°03'0 0.0
2014-Oct-09 12:32N 52°27' E 004°03'0 0.0
2014-Oct-09 11:32N 52°27' E 004°03'0 0.0
2014-Oct-09 10:32N 52°27' E 004°03'0 0.0
2014-Oct-09 09:32N 52°27' E 004°03'0 0.1
2014-Oct-09 08:32N 52°27' E 004°03'0 0.0
2014-Oct-09 07:32N 52°27' E 004°03'0 0.0
2014-Oct-09 06:32N 52°27' E 004°03'0 0.0
2014-Oct-09 05:32N 52°27' E 004°03'0 0.0
2014-Oct-09 04:32N 52°27' E 004°03'0 0.0
2014-Oct-09 03:32N 52°27' E 004°03'0 0.5
2014-Oct-09 02:33N 52°28' E 004°03'1010.4
2014-Oct-09 01:33N 52°26' E 003°46'1512.4
2014-Oct-09 00:18N 52°19' E 003°24'4511.6
2014-Oct-08 20:25N 51°45' E 002°35'910.6
2014-Oct-08 19:33N 51°38' E 002°25'1111.0
2014-Oct-08 18:34N 51°30' E 002°14'1211.8
2014-Oct-08 17:33N 51°19' E 002°08'1010.5
2014-Oct-08 16:34N 51°11' E 001°57'1211.6
2014-Oct-08 15:33N 51°04' E 001°42'1312.8
2014-Oct-08 14:34N 50°55' E 001°28'2412.1
2014-Oct-08 12:33N 50°34' E 001°08'1511.5
2014-Oct-08 11:13N 50°27' E 000°46'811.8
2014-Oct-08 10:34N 50°26' E 000°35'1212.5
2014-Oct-08 09:34N 50°22' E 000°16'  

Dump ship's entire track history